sensor_id;sensor_type;location;lat;lon;timestamp;temperature;humidity
12477;DHT22;6303;51.504;6.300;2023-07-08T00:00:15;28.40;53.30
12477;DHT22;6303;51.504;6.300;2023-07-08T00:02:47;28.40;53.30
12477;DHT22;6303;51.504;6.300;2023-07-08T00:05:17;28.40;53.40
12477;DHT22;6303;51.504;6.300;2023-07-08T00:07:45;28.40;53.40
12477;DHT22;6303;51.504;6.300;2023-07-08T00:10:16;28.40;53.40
12477;DHT22;6303;51.504;6.300;2023-07-08T00:12:44;28.40;53.40
12477;DHT22;6303;51.504;6.300;2023-07-08T00:15:13;28.30;53.30
12477;DHT22;6303;51.504;6.300;2023-07-08T00:17:40;28.40;53.40
12477;DHT22;6303;51.504;6.300;2023-07-08T00:20:19;28.30;53.40
12477;DHT22;6303;51.504;6.300;2023-07-08T00:22:46;28.30;53.40
12477;DHT22;6303;51.504;6.300;2023-07-08T00:25:15;28.30;53.40
12477;DHT22;6303;51.504;6.300;2023-07-08T00:27:43;28.30;53.40
12477;DHT22;6303;51.504;6.300;2023-07-08T00:30:21;28.30;53.40
12477;DHT22;6303;51.504;6.300;2023-07-08T00:32:49;28.30;53.40
12477;DHT22;6303;51.504;6.300;2023-07-08T00:35:31;28.30;53.40
12477;DHT22;6303;51.504;6.300;2023-07-08T00:38:00;28.30;53.40
12477;DHT22;6303;51.504;6.300;2023-07-08T00:40:29;28.30;53.50
12477;DHT22;6303;51.504;6.300;2023-07-08T00:42:58;28.30;53.50
12477;DHT22;6303;51.504;6.300;2023-07-08T00:45:37;28.30;53.50
12477;DHT22;6303;51.504;6.300;2023-07-08T00:48:16;28.20;53.50
12477;DHT22;6303;51.504;6.300;2023-07-08T00:50:44;28.30;53.60
12477;DHT22;6303;51.504;6.300;2023-07-08T00:53:26;28.30;53.60
12477;DHT22;6303;51.504;6.300;2023-07-08T00:55:55;28.30;53.70
12477;DHT22;6303;51.504;6.300;2023-07-08T00:58:27;28.30;53.70
12477;DHT22;6303;51.504;6.300;2023-07-08T01:00:56;28.20;53.60
12477;DHT22;6303;51.504;6.300;2023-07-08T01:03:24;28.20;53.60
12477;DHT22;6303;51.504;6.300;2023-07-08T01:05:53;28.20;53.60
12477;DHT22;6303;51.504;6.300;2023-07-08T01:08:26;28.20;53.70
12477;DHT22;6303;51.504;6.300;2023-07-08T01:11:00;28.20;53.70
12477;DHT22;6303;51.504;6.300;2023-07-08T01:13:32;28.20;53.70
12477;DHT22;6303;51.504;6.300;2023-07-08T01:16:03;28.20;53.70
12477;DHT22;6303;51.504;6.300;2023-07-08T01:18:30;28.20;53.70
12477;DHT22;6303;51.504;6.300;2023-07-08T01:23:35;28.20;53.80
12477;DHT22;6303;51.504;6.300;2023-07-08T01:26:03;28.20;54.30
12477;DHT22;6303;51.504;6.300;2023-07-08T01:28:30;28.20;53.80
12477;DHT22;6303;51.504;6.300;2023-07-08T01:30:58;28.20;53.80
12477;DHT22;6303;51.504;6.300;2023-07-08T01:33:26;28.20;53.90
12477;DHT22;6303;51.504;6.300;2023-07-08T01:35:55;28.20;53.90
12477;DHT22;6303;51.504;6.300;2023-07-08T01:38:25;28.20;53.90
12477;DHT22;6303;51.504;6.300;2023-07-08T01:40:54;28.20;54.00
12477;DHT22;6303;51.504;6.300;2023-07-08T01:43:22;28.20;54.00
12477;DHT22;6303;51.504;6.300;2023-07-08T01:45:51;28.20;54.00
12477;DHT22;6303;51.504;6.300;2023-07-08T01:48:21;28.20;54.10
12477;DHT22;6303;51.504;6.300;2023-07-08T01:50:51;28.10;54.10
12477;DHT22;6303;51.504;6.300;2023-07-08T01:53:27;28.10;54.10
12477;DHT22;6303;51.504;6.300;2023-07-08T01:55:55;28.10;54.10
12477;DHT22;6303;51.504;6.300;2023-07-08T01:58:22;28.10;54.20
12477;DHT22;6303;51.504;6.300;2023-07-08T02:00:50;28.10;54.20
12477;DHT22;6303;51.504;6.300;2023-07-08T02:03:17;28.10;54.20
12477;DHT22;6303;51.504;6.300;2023-07-08T02:05:44;28.10;54.30
12477;DHT22;6303;51.504;6.300;2023-07-08T02:08:12;28.10;54.30
12477;DHT22;6303;51.504;6.300;2023-07-08T02:10:41;28.10;54.20
12477;DHT22;6303;51.504;6.300;2023-07-08T02:13:09;28.00;54.20
12477;DHT22;6303;51.504;6.300;2023-07-08T02:15:36;28.00;54.30
12477;DHT22;6303;51.504;6.300;2023-07-08T02:18:03;28.10;54.30
12477;DHT22;6303;51.504;6.300;2023-07-08T02:20:30;28.10;54.30
12477;DHT22;6303;51.504;6.300;2023-07-08T02:22:57;28.10;54.30
12477;DHT22;6303;51.504;6.300;2023-07-08T02:25:24;28.10;54.30
12477;DHT22;6303;51.504;6.300;2023-07-08T02:27:52;28.00;54.30
12477;DHT22;6303;51.504;6.300;2023-07-08T02:30:22;28.00;54.20
12477;DHT22;6303;51.504;6.300;2023-07-08T02:32:49;28.00;54.20
12477;DHT22;6303;51.504;6.300;2023-07-08T02:35:23;28.00;54.20
12477;DHT22;6303;51.504;6.300;2023-07-08T02:37:51;28.00;54.20
12477;DHT22;6303;51.504;6.300;2023-07-08T02:40:18;28.00;54.20
12477;DHT22;6303;51.504;6.300;2023-07-08T02:42:45;28.00;54.20
12477;DHT22;6303;51.504;6.300;2023-07-08T02:45:13;28.00;54.20
12477;DHT22;6303;51.504;6.300;2023-07-08T02:47:42;28.00;54.20
12477;DHT22;6303;51.504;6.300;2023-07-08T02:50:10;28.00;54.20
12477;DHT22;6303;51.504;6.300;2023-07-08T02:52:38;28.00;54.20
12477;DHT22;6303;51.504;6.300;2023-07-08T02:55:06;28.00;54.30
12477;DHT22;6303;51.504;6.300;2023-07-08T02:57:33;27.90;54.20
12477;DHT22;6303;51.504;6.300;2023-07-08T03:00:00;27.90;54.20
12477;DHT22;6303;51.504;6.300;2023-07-08T03:02:29;27.90;54.30
12477;DHT22;6303;51.504;6.300;2023-07-08T03:04:58;27.90;54.40
12477;DHT22;6303;51.504;6.300;2023-07-08T03:07:26;27.90;54.50
12477;DHT22;6303;51.504;6.300;2023-07-08T03:09:53;27.90;54.40
12477;DHT22;6303;51.504;6.300;2023-07-08T03:12:20;27.90;54.40
12477;DHT22;6303;51.504;6.300;2023-07-08T03:14:47;27.90;54.50
12477;DHT22;6303;51.504;6.300;2023-07-08T03:17:15;27.90;54.50
12477;DHT22;6303;51.504;6.300;2023-07-08T03:19:43;27.90;54.60
12477;DHT22;6303;51.504;6.300;2023-07-08T03:22:12;27.90;54.60
12477;DHT22;6303;51.504;6.300;2023-07-08T03:24:39;27.90;54.70
12477;DHT22;6303;51.504;6.300;2023-07-08T03:27:13;27.80;54.60
12477;DHT22;6303;51.504;6.300;2023-07-08T03:29:42;27.80;54.60
12477;DHT22;6303;51.504;6.300;2023-07-08T03:32:10;27.80;54.60
12477;DHT22;6303;51.504;6.300;2023-07-08T03:34:38;27.80;54.60
12477;DHT22;6303;51.504;6.300;2023-07-08T03:37:05;27.80;54.60
12477;DHT22;6303;51.504;6.300;2023-07-08T03:39:35;27.80;54.60
12477;DHT22;6303;51.504;6.300;2023-07-08T03:42:03;27.80;54.60
12477;DHT22;6303;51.504;6.300;2023-07-08T03:44:30;27.80;54.60
12477;DHT22;6303;51.504;6.300;2023-07-08T03:46:58;27.80;54.60
12477;DHT22;6303;51.504;6.300;2023-07-08T03:49:25;27.80;54.60
12477;DHT22;6303;51.504;6.300;2023-07-08T03:51:54;27.80;54.60
12477;DHT22;6303;51.504;6.300;2023-07-08T03:54:23;27.80;54.50
12477;DHT22;6303;51.504;6.300;2023-07-08T03:56:52;27.80;54.60
12477;DHT22;6303;51.504;6.300;2023-07-08T03:59:22;27.80;54.50
12477;DHT22;6303;51.504;6.300;2023-07-08T04:01:49;27.80;54.50
12477;DHT22;6303;51.504;6.300;2023-07-08T04:04:17;27.80;55.10
12477;DHT22;6303;51.504;6.300;2023-07-08T04:06:44;27.80;55.10
12477;DHT22;6303;51.504;6.300;2023-07-08T04:09:12;27.80;54.40
12477;DHT22;6303;51.504;6.300;2023-07-08T04:11:39;27.80;54.40
12477;DHT22;6303;51.504;6.300;2023-07-08T04:14:08;27.80;54.40
12477;DHT22;6303;51.504;6.300;2023-07-08T04:16:44;27.80;54.40
12477;DHT22;6303;51.504;6.300;2023-07-08T04:19:12;27.90;54.40
12477;DHT22;6303;51.504;6.300;2023-07-08T04:21:41;27.80;54.30
12477;DHT22;6303;51.504;6.300;2023-07-08T04:24:10;27.90;54.30
12477;DHT22;6303;51.504;6.300;2023-07-08T04:26:37;27.90;54.30
12477;DHT22;6303;51.504;6.300;2023-07-08T04:29:10;27.90;54.40
12477;DHT22;6303;51.504;6.300;2023-07-08T04:31:37;27.90;54.30
12477;DHT22;6303;51.504;6.300;2023-07-08T04:34:04;27.90;54.30
12477;DHT22;6303;51.504;6.300;2023-07-08T04:36:32;27.90;54.30
12477;DHT22;6303;51.504;6.300;2023-07-08T04:38:59;27.90;54.20
12477;DHT22;6303;51.504;6.300;2023-07-08T04:41:26;27.90;54.20
12477;DHT22;6303;51.504;6.300;2023-07-08T04:43:53;27.90;54.20
12477;DHT22;6303;51.504;6.300;2023-07-08T04:46:30;27.90;54.20
12477;DHT22;6303;51.504;6.300;2023-07-08T04:49:00;28.00;54.20
12477;DHT22;6303;51.504;6.300;2023-07-08T04:51:29;28.00;54.10
12477;DHT22;6303;51.504;6.300;2023-07-08T04:53:56;28.00;54.00
12477;DHT22;6303;51.504;6.300;2023-07-08T04:56:26;28.00;54.00
12477;DHT22;6303;51.504;6.300;2023-07-08T04:58:53;28.30;54.20
12477;DHT22;6303;51.504;6.300;2023-07-08T05:01:20;28.00;54.00
12477;DHT22;6303;51.504;6.300;2023-07-08T05:03:48;28.00;53.90
12477;DHT22;6303;51.504;6.300;2023-07-08T05:06:15;28.00;53.80
12477;DHT22;6303;51.504;6.300;2023-07-08T05:08:42;28.10;54.00
12477;DHT22;6303;51.504;6.300;2023-07-08T05:11:09;28.00;53.90
12477;DHT22;6303;51.504;6.300;2023-07-08T05:13:36;28.10;54.00
12477;DHT22;6303;51.504;6.300;2023-07-08T05:16:04;28.10;53.80
12477;DHT22;6303;51.504;6.300;2023-07-08T05:18:31;28.10;53.80
12477;DHT22;6303;51.504;6.300;2023-07-08T05:20:59;28.10;53.80
12477;DHT22;6303;51.504;6.300;2023-07-08T05:23:27;28.10;53.80
12477;DHT22;6303;51.504;6.300;2023-07-08T05:25:54;28.10;53.80
12477;DHT22;6303;51.504;6.300;2023-07-08T05:28:21;28.40;54.10
12477;DHT22;6303;51.504;6.300;2023-07-08T05:30:52;28.20;53.90
12477;DHT22;6303;51.504;6.300;2023-07-08T05:33:20;28.20;53.90
12477;DHT22;6303;51.504;6.300;2023-07-08T05:35:47;28.30;53.90
12477;DHT22;6303;51.504;6.300;2023-07-08T05:38:16;28.30;53.80
12477;DHT22;6303;51.504;6.300;2023-07-08T05:40:43;27.10;52.90
12477;DHT22;6303;51.504;6.300;2023-07-08T05:43:15;28.40;53.70
12477;DHT22;6303;51.504;6.300;2023-07-08T05:45:42;28.40;53.70
12477;DHT22;6303;51.504;6.300;2023-07-08T05:48:09;28.40;53.60
12477;DHT22;6303;51.504;6.300;2023-07-08T05:50:36;28.40;53.50
12477;DHT22;6303;51.504;6.300;2023-07-08T05:53:03;28.60;53.60
12477;DHT22;6303;51.504;6.300;2023-07-08T05:55:32;28.40;53.50
12477;DHT22;6303;51.504;6.300;2023-07-08T05:57:59;28.40;53.50
12477;DHT22;6303;51.504;6.300;2023-07-08T06:00:26;28.40;53.50
12477;DHT22;6303;51.504;6.300;2023-07-08T06:02:54;28.40;53.40
12477;DHT22;6303;51.504;6.300;2023-07-08T06:05:21;28.40;53.40
12477;DHT22;6303;51.504;6.300;2023-07-08T06:07:48;28.40;53.40
12477;DHT22;6303;51.504;6.300;2023-07-08T06:10:15;28.40;53.40
12477;DHT22;6303;51.504;6.300;2023-07-08T06:12:43;28.50;53.40
12477;DHT22;6303;51.504;6.300;2023-07-08T06:15:10;28.50;53.30
12477;DHT22;6303;51.504;6.300;2023-07-08T06:17:38;28.50;53.30
12477;DHT22;6303;51.504;6.300;2023-07-08T06:20:07;28.50;53.30
12477;DHT22;6303;51.504;6.300;2023-07-08T06:22:34;28.50;53.30
12477;DHT22;6303;51.504;6.300;2023-07-08T06:25:01;28.60;53.30
12477;DHT22;6303;51.504;6.300;2023-07-08T06:27:28;28.60;53.20
12477;DHT22;6303;51.504;6.300;2023-07-08T06:29:56;28.60;53.20
12477;DHT22;6303;51.504;6.300;2023-07-08T06:32:23;28.60;53.10
12477;DHT22;6303;51.504;6.300;2023-07-08T06:34:50;28.60;53.10
12477;DHT22;6303;51.504;6.300;2023-07-08T06:37:17;28.70;53.10
12477;DHT22;6303;51.504;6.300;2023-07-08T06:39:44;28.70;53.00
12477;DHT22;6303;51.504;6.300;2023-07-08T06:42:11;28.70;53.00
12477;DHT22;6303;51.504;6.300;2023-07-08T06:44:44;28.70;53.00
12477;DHT22;6303;51.504;6.300;2023-07-08T06:47:19;28.80;53.00
12477;DHT22;6303;51.504;6.300;2023-07-08T06:49:46;28.70;53.00
12477;DHT22;6303;51.504;6.300;2023-07-08T06:52:13;28.70;52.90
12477;DHT22;6303;51.504;6.300;2023-07-08T06:54:41;28.80;52.90
12477;DHT22;6303;51.504;6.300;2023-07-08T06:57:08;28.80;52.90
12477;DHT22;6303;51.504;6.300;2023-07-08T06:59:35;28.80;52.90
12477;DHT22;6303;51.504;6.300;2023-07-08T07:02:02;28.80;52.80
12477;DHT22;6303;51.504;6.300;2023-07-08T07:04:31;28.80;52.80
12477;DHT22;6303;51.504;6.300;2023-07-08T07:06:58;28.90;52.80
12477;DHT22;6303;51.504;6.300;2023-07-08T07:09:25;28.90;52.70
12477;DHT22;6303;51.504;6.300;2023-07-08T07:11:52;28.90;52.70
12477;DHT22;6303;51.504;6.300;2023-07-08T07:14:20;28.90;52.70
12477;DHT22;6303;51.504;6.300;2023-07-08T07:16:47;29.00;52.70
12477;DHT22;6303;51.504;6.300;2023-07-08T07:19:14;29.00;52.70
12477;DHT22;6303;51.504;6.300;2023-07-08T07:21:42;29.00;52.60
12477;DHT22;6303;51.504;6.300;2023-07-08T07:24:09;29.00;52.60
12477;DHT22;6303;51.504;6.300;2023-07-08T07:26:37;29.00;52.50
12477;DHT22;6303;51.504;6.300;2023-07-08T07:29:04;29.10;52.60
12477;DHT22;6303;51.504;6.300;2023-07-08T07:31:33;29.10;52.50
12477;DHT22;6303;51.504;6.300;2023-07-08T07:34:00;29.10;52.50
12477;DHT22;6303;51.504;6.300;2023-07-08T07:36:28;29.10;52.40
12477;DHT22;6303;51.504;6.300;2023-07-08T07:38:56;29.20;52.40
12477;DHT22;6303;51.504;6.300;2023-07-08T07:41:23;28.70;52.00
12477;DHT22;6303;51.504;6.300;2023-07-08T07:43:51;29.20;52.30
12477;DHT22;6303;51.504;6.300;2023-07-08T07:46:18;29.20;52.20
12477;DHT22;6303;51.504;6.300;2023-07-08T07:48:45;29.40;52.30
12477;DHT22;6303;51.504;6.300;2023-07-08T07:51:12;29.30;52.20
12477;DHT22;6303;51.504;6.300;2023-07-08T07:53:39;29.30;52.10
12477;DHT22;6303;51.504;6.300;2023-07-08T07:56:08;29.30;52.10
12477;DHT22;6303;51.504;6.300;2023-07-08T07:58:35;29.30;52.10
12477;DHT22;6303;51.504;6.300;2023-07-08T08:01:02;29.30;52.10
12477;DHT22;6303;51.504;6.300;2023-07-08T08:03:29;29.30;52.00
12477;DHT22;6303;51.504;6.300;2023-07-08T08:05:56;29.30;52.00
12477;DHT22;6303;51.504;6.300;2023-07-08T08:08:23;29.40;52.10
12477;DHT22;6303;51.504;6.300;2023-07-08T08:10:50;29.40;52.00
12477;DHT22;6303;51.504;6.300;2023-07-08T08:13:19;29.40;52.00
12477;DHT22;6303;51.504;6.300;2023-07-08T08:15:46;29.40;51.90
12477;DHT22;6303;51.504;6.300;2023-07-08T08:18:13;29.40;52.00
12477;DHT22;6303;51.504;6.300;2023-07-08T08:20:40;29.40;52.00
12477;DHT22;6303;51.504;6.300;2023-07-08T08:23:07;29.40;52.00
12477;DHT22;6303;51.504;6.300;2023-07-08T08:25:34;29.40;52.00
12477;DHT22;6303;51.504;6.300;2023-07-08T08:28:01;29.50;52.10
12477;DHT22;6303;51.504;6.300;2023-07-08T08:30:31;29.50;52.00
12477;DHT22;6303;51.504;6.300;2023-07-08T08:32:59;29.60;51.90
12477;DHT22;6303;51.504;6.300;2023-07-08T08:35:26;29.60;51.80
12477;DHT22;6303;51.504;6.300;2023-07-08T08:37:53;29.70;51.80
12477;DHT22;6303;51.504;6.300;2023-07-08T08:40:20;29.70;51.70
12477;DHT22;6303;51.504;6.300;2023-07-08T08:42:52;29.70;51.60
12477;DHT22;6303;51.504;6.300;2023-07-08T08:45:21;29.80;51.60
12477;DHT22;6303;51.504;6.300;2023-07-08T08:47:56;29.80;51.50
12477;DHT22;6303;51.504;6.300;2023-07-08T08:50:30;29.90;51.50
12477;DHT22;6303;51.504;6.300;2023-07-08T08:53:01;29.90;51.30
12477;DHT22;6303;51.504;6.300;2023-07-08T08:55:29;30.00;51.30
12477;DHT22;6303;51.504;6.300;2023-07-08T08:58:13;30.00;51.20
12477;DHT22;6303;51.504;6.300;2023-07-08T09:00:52;30.00;51.20
12477;DHT22;6303;51.504;6.300;2023-07-08T09:03:34;30.10;51.20
12477;DHT22;6303;51.504;6.300;2023-07-08T09:06:11;30.10;51.20
12477;DHT22;6303;51.504;6.300;2023-07-08T09:08:39;30.10;51.20
12477;DHT22;6303;51.504;6.300;2023-07-08T09:11:18;30.10;51.00
12477;DHT22;6303;51.504;6.300;2023-07-08T09:13:46;30.20;50.90
12477;DHT22;6303;51.504;6.300;2023-07-08T09:16:18;30.20;50.80
12477;DHT22;6303;51.504;6.300;2023-07-08T09:18:57;30.20;50.70
12477;DHT22;6303;51.504;6.300;2023-07-08T09:21:28;30.30;50.60
12477;DHT22;6303;51.504;6.300;2023-07-08T09:24:00;30.30;50.60
12477;DHT22;6303;51.504;6.300;2023-07-08T09:26:30;30.30;50.50
12477;DHT22;6303;51.504;6.300;2023-07-08T09:28:59;30.30;50.50
12477;DHT22;6303;51.504;6.300;2023-07-08T09:31:28;30.40;50.60
12477;DHT22;6303;51.504;6.300;2023-07-08T09:34:06;30.50;51.60
12477;DHT22;6303;51.504;6.300;2023-07-08T09:36:34;30.60;54.10
12477;DHT22;6303;51.504;6.300;2023-07-08T09:39:01;30.70;54.30
12477;DHT22;6303;51.504;6.300;2023-07-08T09:41:34;30.80;54.60
12477;DHT22;6303;51.504;6.300;2023-07-08T09:44:16;30.90;54.30
12477;DHT22;6303;51.504;6.300;2023-07-08T09:46:44;30.90;55.20
12477;DHT22;6303;51.504;6.300;2023-07-08T09:49:20;31.10;54.80
12477;DHT22;6303;51.504;6.300;2023-07-08T09:51:49;31.10;54.90
12477;DHT22;6303;51.504;6.300;2023-07-08T09:54:17;31.10;55.00
12477;DHT22;6303;51.504;6.300;2023-07-08T09:56:54;31.20;55.00
12477;DHT22;6303;51.504;6.300;2023-07-08T09:59:30;31.30;54.80
12477;DHT22;6303;51.504;6.300;2023-07-08T10:02:02;31.20;54.30
12477;DHT22;6303;51.504;6.300;2023-07-08T10:04:31;31.20;54.30
12477;DHT22;6303;51.504;6.300;2023-07-08T10:06:59;31.00;53.80
12477;DHT22;6303;51.504;6.300;2023-07-08T10:09:26;30.90;53.70
12477;DHT22;6303;51.504;6.300;2023-07-08T10:11:59;30.70;53.20
12477;DHT22;6303;51.504;6.300;2023-07-08T10:14:29;30.60;53.10
12477;DHT22;6303;51.504;6.300;2023-07-08T10:16:57;30.50;52.50
12477;DHT22;6303;51.504;6.300;2023-07-08T10:19:24;30.40;51.80
12477;DHT22;6303;51.504;6.300;2023-07-08T10:21:59;30.40;51.60
12477;DHT22;6303;51.504;6.300;2023-07-08T10:24:40;30.40;51.50
12477;DHT22;6303;51.504;6.300;2023-07-08T10:27:17;30.30;51.50
12477;DHT22;6303;51.504;6.300;2023-07-08T10:29:53;30.30;51.00
12477;DHT22;6303;51.504;6.300;2023-07-08T10:32:28;30.20;51.20
12477;DHT22;6303;51.504;6.300;2023-07-08T10:35:09;30.20;51.30
12477;DHT22;6303;51.504;6.300;2023-07-08T10:37:47;30.20;50.70
12477;DHT22;6303;51.504;6.300;2023-07-08T10:40:31;30.20;50.20
12477;DHT22;6303;51.504;6.300;2023-07-08T10:43:16;30.10;50.50
12477;DHT22;6303;51.504;6.300;2023-07-08T10:45:49;30.10;50.70
12477;DHT22;6303;51.504;6.300;2023-07-08T10:48:29;30.10;50.80
12477;DHT22;6303;51.504;6.300;2023-07-08T10:51:10;30.10;50.70
12477;DHT22;6303;51.504;6.300;2023-07-08T10:53:52;30.00;50.60
12477;DHT22;6303;51.504;6.300;2023-07-08T10:56:28;30.00;50.60
12477;DHT22;6303;51.504;6.300;2023-07-08T10:59:14;30.00;51.00
12477;DHT22;6303;51.504;6.300;2023-07-08T11:02:10;29.90;50.60
12477;DHT22;6303;51.504;6.300;2023-07-08T11:04:50;29.90;51.10
12477;DHT22;6303;51.504;6.300;2023-07-08T11:07:30;29.90;51.20
12477;DHT22;6303;51.504;6.300;2023-07-08T11:10:05;30.00;51.10
12477;DHT22;6303;51.504;6.300;2023-07-08T11:12:38;30.00;50.80
12477;DHT22;6303;51.504;6.300;2023-07-08T11:15:14;30.00;50.90
12477;DHT22;6303;51.504;6.300;2023-07-08T11:17:48;30.00;50.60
12477;DHT22;6303;51.504;6.300;2023-07-08T11:20:18;30.00;51.10
12477;DHT22;6303;51.504;6.300;2023-07-08T11:22:49;30.00;50.70
12477;DHT22;6303;51.504;6.300;2023-07-08T11:25:21;30.00;50.30
12477;DHT22;6303;51.504;6.300;2023-07-08T11:27:53;30.00;50.40
12477;DHT22;6303;51.504;6.300;2023-07-08T11:30:23;30.10;50.40
12477;DHT22;6303;51.504;6.300;2023-07-08T11:32:57;30.00;50.00
12477;DHT22;6303;51.504;6.300;2023-07-08T11:35:33;30.00;49.90
12477;DHT22;6303;51.504;6.300;2023-07-08T11:38:02;30.00;50.10
12477;DHT22;6303;51.504;6.300;2023-07-08T11:40:31;30.00;50.00
12477;DHT22;6303;51.504;6.300;2023-07-08T11:43:02;30.00;49.80
12477;DHT22;6303;51.504;6.300;2023-07-08T11:45:33;30.00;49.70
12477;DHT22;6303;51.504;6.300;2023-07-08T11:48:09;30.00;49.50
12477;DHT22;6303;51.504;6.300;2023-07-08T11:50:41;30.00;49.70
12477;DHT22;6303;51.504;6.300;2023-07-08T11:53:12;30.00;49.90
12477;DHT22;6303;51.504;6.300;2023-07-08T11:55:48;30.00;50.10
12477;DHT22;6303;51.504;6.300;2023-07-08T11:58:24;30.00;50.20
12477;DHT22;6303;51.504;6.300;2023-07-08T12:00:58;30.00;50.00
12477;DHT22;6303;51.504;6.300;2023-07-08T12:03:34;30.00;49.60
12477;DHT22;6303;51.504;6.300;2023-07-08T12:06:02;30.00;49.90
12477;DHT22;6303;51.504;6.300;2023-07-08T12:08:36;30.10;49.80
12477;DHT22;6303;51.504;6.300;2023-07-08T12:11:10;30.10;49.50
12477;DHT22;6303;51.504;6.300;2023-07-08T12:13:38;30.20;49.00
12477;DHT22;6303;51.504;6.300;2023-07-08T12:16:09;30.30;48.70
12477;DHT22;6303;51.504;6.300;2023-07-08T12:18:39;30.30;48.60
12477;DHT22;6303;51.504;6.300;2023-07-08T12:21:12;30.40;48.70
12477;DHT22;6303;51.504;6.300;2023-07-08T12:23:45;30.40;49.10
12477;DHT22;6303;51.504;6.300;2023-07-08T12:26:14;31.00;50.00
12477;DHT22;6303;51.504;6.300;2023-07-08T12:28:43;30.40;49.70
12477;DHT22;6303;51.504;6.300;2023-07-08T12:31:14;30.40;49.50
12477;DHT22;6303;51.504;6.300;2023-07-08T12:33:43;30.40;49.50
12477;DHT22;6303;51.504;6.300;2023-07-08T12:36:13;30.50;49.60
12477;DHT22;6303;51.504;6.300;2023-07-08T12:38:44;30.50;49.80
12477;DHT22;6303;51.504;6.300;2023-07-08T12:41:16;30.50;49.80
12477;DHT22;6303;51.504;6.300;2023-07-08T12:43:44;30.50;49.80
12477;DHT22;6303;51.504;6.300;2023-07-08T12:46:13;30.50;49.90
12477;DHT22;6303;51.504;6.300;2023-07-08T12:48:41;30.50;50.00
12477;DHT22;6303;51.504;6.300;2023-07-08T12:51:11;30.60;50.00
12477;DHT22;6303;51.504;6.300;2023-07-08T12:53:38;30.60;49.80
12477;DHT22;6303;51.504;6.300;2023-07-08T12:56:06;30.60;49.90
12477;DHT22;6303;51.504;6.300;2023-07-08T12:58:39;30.60;50.20
12477;DHT22;6303;51.504;6.300;2023-07-08T13:01:08;30.60;50.40
12477;DHT22;6303;51.504;6.300;2023-07-08T13:03:37;30.70;50.40
12477;DHT22;6303;51.504;6.300;2023-07-08T13:06:09;30.70;50.30
12477;DHT22;6303;51.504;6.300;2023-07-08T13:08:37;30.70;50.20
12477;DHT22;6303;51.504;6.300;2023-07-08T13:11:06;30.70;50.10
12477;DHT22;6303;51.504;6.300;2023-07-08T13:13:37;30.70;50.00
12477;DHT22;6303;51.504;6.300;2023-07-08T13:16:06;30.80;50.10
12477;DHT22;6303;51.504;6.300;2023-07-08T13:18:34;30.70;50.50
12477;DHT22;6303;51.504;6.300;2023-07-08T13:21:03;30.80;50.50
12477;DHT22;6303;51.504;6.300;2023-07-08T13:23:32;30.80;50.50
12477;DHT22;6303;51.504;6.300;2023-07-08T13:26:00;30.90;50.40
12477;DHT22;6303;51.504;6.300;2023-07-08T13:28:29;30.90;50.40
12477;DHT22;6303;51.504;6.300;2023-07-08T13:31:00;30.90;50.30
12477;DHT22;6303;51.504;6.300;2023-07-08T13:33:29;30.90;50.10
12477;DHT22;6303;51.504;6.300;2023-07-08T13:36:02;30.90;49.90
12477;DHT22;6303;51.504;6.300;2023-07-08T13:38:32;30.90;49.50
12477;DHT22;6303;51.504;6.300;2023-07-08T13:41:01;31.00;49.40
12477;DHT22;6303;51.504;6.300;2023-07-08T13:43:31;31.00;49.30
12477;DHT22;6303;51.504;6.300;2023-07-08T13:46:00;31.00;49.30
12477;DHT22;6303;51.504;6.300;2023-07-08T13:48:29;31.00;49.30
12477;DHT22;6303;51.504;6.300;2023-07-08T13:51:02;31.10;49.60
12477;DHT22;6303;51.504;6.300;2023-07-08T13:53:42;31.10;49.60
12477;DHT22;6303;51.504;6.300;2023-07-08T13:56:13;31.20;49.70
12477;DHT22;6303;51.504;6.300;2023-07-08T13:58:43;31.20;49.80
12477;DHT22;6303;51.504;6.300;2023-07-08T14:01:16;31.20;49.60
12477;DHT22;6303;51.504;6.300;2023-07-08T14:03:44;31.10;49.70
12477;DHT22;6303;51.504;6.300;2023-07-08T14:06:14;31.10;49.90
12477;DHT22;6303;51.504;6.300;2023-07-08T14:08:41;31.20;50.00
12477;DHT22;6303;51.504;6.300;2023-07-08T14:11:08;31.20;50.00
12477;DHT22;6303;51.504;6.300;2023-07-08T14:13:35;31.20;50.30
12477;DHT22;6303;51.504;6.300;2023-07-08T14:16:03;31.20;50.30
12477;DHT22;6303;51.504;6.300;2023-07-08T14:18:32;31.20;50.10
12477;DHT22;6303;51.504;6.300;2023-07-08T14:21:00;31.20;50.30
12477;DHT22;6303;51.504;6.300;2023-07-08T14:23:27;31.30;50.30
12477;DHT22;6303;51.504;6.300;2023-07-08T14:25:54;31.30;50.40
12477;DHT22;6303;51.504;6.300;2023-07-08T14:28:21;31.30;50.30
12477;DHT22;6303;51.504;6.300;2023-07-08T14:30:48;31.30;50.20
12477;DHT22;6303;51.504;6.300;2023-07-08T14:33:15;31.30;50.20
12477;DHT22;6303;51.504;6.300;2023-07-08T14:35:44;30.30;49.30
12477;DHT22;6303;51.504;6.300;2023-07-08T14:38:12;31.30;49.60
12477;DHT22;6303;51.504;6.300;2023-07-08T14:40:41;31.30;49.40
12477;DHT22;6303;51.504;6.300;2023-07-08T14:43:24;31.30;49.20
12477;DHT22;6303;51.504;6.300;2023-07-08T14:45:55;31.30;49.00
12477;DHT22;6303;51.504;6.300;2023-07-08T14:48:23;31.30;48.90
12477;DHT22;6303;51.504;6.300;2023-07-08T14:50:51;31.30;48.80
12477;DHT22;6303;51.504;6.300;2023-07-08T14:53:18;31.20;48.70
12477;DHT22;6303;51.504;6.300;2023-07-08T14:55:47;31.30;48.80
12477;DHT22;6303;51.504;6.300;2023-07-08T14:58:20;31.30;48.70
12477;DHT22;6303;51.504;6.300;2023-07-08T15:00:48;31.30;49.00
12477;DHT22;6303;51.504;6.300;2023-07-08T15:03:15;31.30;49.00
12477;DHT22;6303;51.504;6.300;2023-07-08T15:05:42;31.30;49.00
12477;DHT22;6303;51.504;6.300;2023-07-08T15:08:11;31.30;49.00
12477;DHT22;6303;51.504;6.300;2023-07-08T15:10:40;31.30;49.00
12477;DHT22;6303;51.504;6.300;2023-07-08T15:13:09;31.30;49.10
12477;DHT22;6303;51.504;6.300;2023-07-08T15:15:37;31.30;49.10
12477;DHT22;6303;51.504;6.300;2023-07-08T15:18:11;31.30;49.00
12477;DHT22;6303;51.504;6.300;2023-07-08T15:20:40;31.30;49.00
12477;DHT22;6303;51.504;6.300;2023-07-08T15:23:07;31.30;49.10
12477;DHT22;6303;51.504;6.300;2023-07-08T15:25:36;31.30;50.20
12477;DHT22;6303;51.504;6.300;2023-07-08T15:28:04;31.30;49.70
12477;DHT22;6303;51.504;6.300;2023-07-08T15:30:32;31.40;49.80
12477;DHT22;6303;51.504;6.300;2023-07-08T15:32:59;31.40;49.80
12477;DHT22;6303;51.504;6.300;2023-07-08T15:35:27;31.40;49.60
12477;DHT22;6303;51.504;6.300;2023-07-08T15:37:56;31.40;49.30
12477;DHT22;6303;51.504;6.300;2023-07-08T15:40:25;31.40;49.00
12477;DHT22;6303;51.504;6.300;2023-07-08T15:42:56;31.40;49.00
12477;DHT22;6303;51.504;6.300;2023-07-08T15:45:26;31.40;48.90
12477;DHT22;6303;51.504;6.300;2023-07-08T15:47:53;31.40;49.00
12477;DHT22;6303;51.504;6.300;2023-07-08T15:50:21;31.40;48.80
12477;DHT22;6303;51.504;6.300;2023-07-08T15:52:49;31.30;48.70
12477;DHT22;6303;51.504;6.300;2023-07-08T15:55:19;31.30;48.60
12477;DHT22;6303;51.504;6.300;2023-07-08T15:57:51;31.30;48.60
12477;DHT22;6303;51.504;6.300;2023-07-08T16:00:22;31.30;48.70
12477;DHT22;6303;51.504;6.300;2023-07-08T16:02:52;31.30;48.80